createdAt,value
2019-03-29T00:02:27.889Z,7.10
2019-03-29T00:04:58.331Z,7.10
2019-03-29T00:07:39.348Z,7.10
2019-03-29T00:10:00.740Z,7.10
2019-03-29T00:12:31.065Z,7.10
2019-03-29T00:15:01.358Z,7.10
2019-03-29T00:17:31.567Z,7.10
2019-03-29T00:20:02.097Z,7.10
2019-03-29T00:22:32.502Z,7.10
2019-03-29T00:25:02.282Z,7.00
2019-03-29T00:27:32.266Z,7.00
2019-03-29T00:30:02.086Z,7.00
2019-03-29T00:32:32.919Z,6.90
2019-03-29T00:35:03.445Z,6.90
2019-03-29T00:37:33.619Z,6.90
2019-03-29T00:40:04.099Z,6.90
2019-03-29T00:42:33.912Z,6.90
2019-03-29T00:45:04.973Z,6.90
2019-03-29T00:47:34.746Z,6.90
2019-03-29T00:50:05.331Z,6.90
2019-03-29T00:52:35.774Z,6.80
2019-03-29T00:55:06.807Z,6.80
2019-03-29T00:57:36.965Z,6.80
2019-03-29T01:00:07.636Z,6.70
2019-03-29T01:02:37.644Z,6.70
2019-03-29T01:05:08.534Z,6.70
2019-03-29T01:07:38.232Z,6.70
2019-03-29T01:10:08.490Z,6.60
2019-03-29T01:12:38.188Z,6.70
2019-03-29T01:15:09.544Z,6.70
2019-03-29T01:17:39.641Z,6.80
2019-03-29T01:20:10.306Z,6.80
2019-03-29T01:22:41.142Z,6.90
2019-03-29T01:25:11.627Z,6.90
2019-03-29T01:27:41.361Z,7.00
2019-03-29T01:30:12.679Z,7.00
2019-03-29T01:32:42.842Z,7.00
2019-03-29T01:35:12.856Z,7.00
2019-03-29T01:37:43.060Z,6.90
2019-03-29T01:40:13.461Z,6.90
2019-03-29T01:42:45.073Z,6.90
2019-03-29T01:45:15.475Z,6.90
2019-03-29T01:47:45.646Z,6.80
2019-03-29T01:50:16.080Z,6.80
2019-03-29T01:52:46.670Z,6.80
2019-03-29T01:55:17.321Z,6.80
2019-03-29T01:57:47.407Z,6.70
2019-03-29T02:00:28.046Z,6.70
2019-03-29T02:02:57.741Z,6.70
2019-03-29T02:05:27.787Z,6.60
2019-03-29T02:07:58.434Z,6.60
2019-03-29T02:10:28.172Z,6.60
2019-03-29T02:12:58.071Z,6.60
2019-03-29T02:15:28.709Z,6.70
2019-03-29T02:17:58.968Z,6.70
2019-03-29T02:20:29.079Z,6.70
2019-03-29T02:22:58.788Z,6.80
2019-03-29T02:25:28.572Z,6.80
2019-03-29T02:27:58.836Z,6.80
2019-03-29T02:30:28.903Z,6.70
2019-03-29T02:32:58.645Z,6.80
2019-03-29T02:35:28.596Z,6.70
2019-03-29T02:37:58.856Z,6.70
2019-03-29T02:40:29.062Z,6.70
2019-03-29T02:42:59.167Z,6.70
2019-03-29T02:45:30.554Z,6.70
2019-03-29T02:48:01.348Z,6.60
2019-03-29T02:50:31.435Z,6.60
2019-03-29T02:53:01.553Z,6.50
2019-03-29T02:55:31.330Z,6.50
2019-03-29T02:58:01.825Z,6.40
2019-03-29T03:00:32.005Z,6.40
2019-03-29T03:03:02.531Z,6.30
2019-03-29T03:05:32.416Z,6.30
2019-03-29T03:08:02.124Z,6.30
2019-03-29T03:10:32.245Z,6.20
2019-03-29T03:13:02.086Z,6.20
2019-03-29T03:15:31.898Z,6.20
2019-03-29T03:18:01.792Z,6.10
2019-03-29T03:20:31.871Z,6.10
2019-03-29T03:23:02.005Z,6.10
2019-03-29T03:25:32.401Z,6.10
2019-03-29T03:28:02.792Z,6.10
2019-03-29T03:30:33.429Z,6.00
2019-03-29T03:33:03.347Z,6.00
2019-03-29T03:35:33.515Z,6.00
2019-03-29T03:38:03.394Z,6.00
2019-03-29T03:40:33.204Z,6.00
2019-03-29T03:43:03.384Z,5.90
2019-03-29T03:45:33.679Z,5.90
2019-03-29T03:48:03.493Z,5.80
2019-03-29T03:50:39.033Z,5.90
2019-03-29T03:53:08.778Z,5.80
2019-03-29T03:55:40.179Z,5.80
2019-03-29T03:58:11.997Z,5.80
2019-03-29T04:01:00.815Z,5.70
2019-03-29T04:03:31.716Z,5.70
2019-03-29T04:06:01.588Z,5.70
2019-03-29T04:08:31.369Z,5.60
2019-03-29T04:11:01.487Z,5.60
2019-03-29T04:13:31.694Z,5.60
2019-03-29T04:16:01.823Z,5.50
2019-03-29T04:18:31.683Z,5.50
2019-03-29T04:21:01.549Z,5.50
2019-03-29T04:23:31.976Z,5.40
2019-03-29T04:26:02.337Z,5.40
2019-03-29T04:28:32.557Z,5.40
2019-03-29T04:31:02.561Z,5.40
2019-03-29T04:33:32.694Z,5.30
2019-03-29T04:36:02.411Z,5.30
2019-03-29T04:38:32.554Z,5.40
2019-03-29T04:41:02.468Z,5.30
2019-03-29T04:43:32.974Z,5.30
2019-03-29T04:46:03.448Z,5.30
2019-03-29T04:48:33.994Z,5.30
2019-03-29T04:51:03.999Z,5.30
2019-03-29T04:53:35.241Z,5.30
2019-03-29T04:56:05.927Z,5.30
2019-03-29T04:58:35.644Z,5.30
2019-03-29T05:01:06.585Z,5.20
2019-03-29T05:03:36.831Z,5.20
2019-03-29T05:06:07.019Z,5.20
2019-03-29T05:08:37.423Z,5.20
2019-03-29T05:11:07.212Z,5.10
2019-03-29T05:13:37.336Z,5.10
2019-03-29T05:16:07.050Z,5.10
2019-03-29T05:18:37.085Z,5.10
2019-03-29T05:21:06.894Z,5.10
2019-03-29T05:23:36.603Z,5.00
2019-03-29T05:26:06.447Z,5.00
2019-03-29T05:28:36.774Z,5.00
2019-03-29T05:31:09.575Z,5.00
2019-03-29T05:33:39.447Z,5.00
2019-03-29T05:36:09.877Z,5.00
2019-03-29T05:38:39.677Z,5.00
2019-03-29T05:41:10.186Z,5.00
2019-03-29T05:43:40.179Z,5.00
2019-03-29T05:46:10.381Z,5.00
2019-03-29T05:48:40.181Z,4.90
2019-03-29T05:51:10.046Z,5.00
2019-03-29T05:53:39.767Z,5.00
2019-03-29T05:56:09.563Z,5.00
2019-03-29T05:58:39.521Z,5.00
2019-03-29T06:01:09.882Z,5.00
2019-03-29T06:03:39.683Z,5.00
2019-03-29T06:06:09.468Z,5.10
2019-03-29T06:08:39.175Z,5.10
2019-03-29T06:11:09.741Z,5.10
2019-03-29T06:13:39.441Z,5.20
2019-03-29T06:16:09.557Z,5.20
2019-03-29T06:18:41.315Z,5.30
2019-03-29T06:21:11.453Z,5.40
2019-03-29T06:23:41.175Z,5.50
2019-03-29T06:26:11.325Z,5.50
2019-03-29T06:28:42.393Z,5.60
2019-03-29T06:31:12.718Z,5.60
2019-03-29T06:33:44.546Z,5.70
2019-03-29T06:36:16.027Z,5.80
2019-03-29T06:38:46.715Z,5.90
2019-03-29T06:41:17.060Z,6.00
2019-03-29T06:43:47.159Z,6.00
2019-03-29T06:46:16.893Z,6.10
2019-03-29T06:48:46.962Z,6.20
2019-03-29T06:51:17.068Z,6.30
2019-03-29T06:53:46.821Z,6.30
2019-03-29T06:56:16.687Z,6.40
2019-03-29T06:58:46.417Z,6.50
2019-03-29T07:01:16.141Z,6.70
2019-03-29T07:03:46.381Z,6.80
2019-03-29T07:06:16.451Z,7.00
2019-03-29T07:08:46.154Z,7.10
2019-03-29T07:11:18.039Z,7.20
2019-03-29T07:13:57.492Z,7.40
2019-03-29T07:16:22.466Z,7.50
2019-03-29T07:18:52.581Z,7.70
2019-03-29T07:21:22.475Z,7.80
2019-03-29T07:23:52.263Z,8.00
2019-03-29T07:26:22.171Z,8.20
2019-03-29T07:28:51.933Z,8.40
2019-03-29T07:31:22.352Z,8.60
2019-03-29T07:33:52.451Z,8.60
2019-03-29T07:36:22.184Z,8.60
2019-03-29T07:38:52.568Z,8.70
2019-03-29T07:41:31.554Z,8.80
2019-03-29T07:43:53.853Z,9.00
2019-03-29T07:46:23.965Z,9.30
2019-03-29T07:48:53.987Z,9.40
2019-03-29T07:51:24.493Z,9.60
2019-03-29T07:53:54.626Z,9.90
2019-03-29T07:56:24.343Z,10.20
2019-03-29T07:58:54.453Z,10.40
2019-03-29T08:01:24.656Z,10.50
2019-03-29T08:03:54.569Z,10.70
2019-03-29T08:06:24.287Z,10.80
2019-03-29T08:08:54.488Z,11.00
2019-03-29T08:11:26.464Z,11.20
2019-03-29T08:13:56.039Z,11.30
2019-03-29T08:16:25.774Z,11.50
2019-03-29T08:18:55.915Z,11.70
2019-03-29T08:21:25.758Z,11.90
2019-03-29T08:23:56.438Z,12.10
2019-03-29T08:26:26.618Z,12.20
2019-03-29T08:28:56.795Z,12.60
2019-03-29T08:31:27.335Z,12.70
2019-03-29T08:33:57.172Z,12.90
2019-03-29T08:36:27.307Z,13.00
2019-03-29T08:38:57.799Z,13.20
2019-03-29T08:41:27.585Z,13.40
2019-03-29T08:43:57.827Z,13.60
2019-03-29T08:46:27.736Z,13.80
2019-03-29T08:48:57.749Z,14.10
2019-03-29T08:51:27.857Z,14.30
2019-03-29T08:53:57.587Z,14.50
2019-03-29T08:56:27.478Z,14.70
2019-03-29T08:58:57.292Z,14.80
2019-03-29T09:01:27.125Z,15.30
2019-03-29T09:04:04.988Z,15.70
2019-03-29T09:06:30.274Z,16.00
2019-03-29T09:09:00.512Z,16.30
2019-03-29T09:11:30.205Z,16.60
2019-03-29T09:14:00.452Z,16.90
2019-03-29T09:16:31.037Z,17.00
2019-03-29T09:19:00.786Z,17.30
2019-03-29T09:21:30.916Z,17.60
2019-03-29T09:24:00.653Z,17.80
2019-03-29T09:26:30.369Z,18.10
2019-03-29T09:29:00.069Z,18.50
2019-03-29T09:31:29.862Z,18.50
2019-03-29T09:33:59.663Z,18.70
2019-03-29T09:36:29.455Z,18.90
2019-03-29T09:38:59.261Z,19.20
2019-03-29T09:41:29.041Z,19.50
2019-03-29T09:43:58.747Z,19.60
2019-03-29T09:46:28.564Z,19.80
2019-03-29T09:48:58.658Z,20.00
2019-03-29T09:51:28.855Z,20.20
2019-03-29T09:53:59.117Z,20.40
2019-03-29T09:56:38.745Z,20.80
2019-03-29T09:59:00.805Z,21.00
2019-03-29T10:01:31.449Z,21.30
2019-03-29T10:04:01.766Z,21.40
2019-03-29T10:06:31.565Z,21.40
2019-03-29T10:09:01.666Z,21.50
2019-03-29T10:11:31.835Z,21.70
2019-03-29T10:14:01.631Z,22.00
2019-03-29T10:16:31.451Z,22.10
2019-03-29T10:19:01.569Z,22.30
2019-03-29T10:21:33.965Z,22.30
2019-03-29T10:24:03.259Z,22.40
2019-03-29T10:26:33.147Z,22.70
2019-03-29T10:29:03.191Z,22.80
2019-03-29T10:31:33.327Z,23.00
2019-03-29T10:34:03.025Z,23.30
2019-03-29T10:36:33.623Z,23.30
2019-03-29T10:39:05.145Z,23.20
2019-03-29T10:41:37.956Z,23.00
2019-03-29T10:44:06.631Z,23.20
2019-03-29T10:46:36.741Z,23.80
2019-03-29T10:49:06.956Z,23.90
2019-03-29T10:51:37.189Z,23.70
2019-03-29T10:54:06.903Z,23.60
2019-03-29T10:56:37.030Z,24.20
2019-03-29T10:59:07.243Z,24.60
2019-03-29T11:01:37.292Z,24.60
2019-03-29T11:04:08.164Z,24.80
2019-03-29T11:06:38.009Z,24.90
2019-03-29T11:09:09.040Z,25.00
2019-03-29T11:11:38.851Z,24.90
2019-03-29T11:14:08.725Z,25.20
2019-03-29T11:16:39.109Z,25.30
2019-03-29T11:19:09.238Z,25.60
2019-03-29T11:21:39.666Z,25.70
2019-03-29T11:24:09.630Z,25.70
2019-03-29T11:26:39.542Z,25.90
2019-03-29T11:29:09.621Z,25.80
2019-03-29T11:31:39.480Z,25.90
2019-03-29T11:34:09.661Z,26.10
2019-03-29T11:36:40.265Z,26.20
2019-03-29T11:39:10.473Z,26.10
2019-03-29T11:41:40.497Z,25.90
2019-03-29T11:44:11.488Z,26.00
2019-03-29T11:46:41.330Z,26.40
2019-03-29T11:49:11.213Z,26.80
2019-03-29T11:51:41.727Z,26.90
2019-03-29T11:54:11.698Z,27.00
2019-03-29T11:56:42.115Z,26.80
2019-03-29T11:59:12.252Z,26.90
2019-03-29T12:01:42.365Z,27.00
2019-03-29T12:04:12.818Z,27.60
2019-03-29T12:06:43.023Z,27.80
2019-03-29T12:09:13.301Z,28.10
2019-03-29T12:11:43.008Z,28.00
2019-03-29T12:14:12.749Z,28.00
2019-03-29T12:16:42.640Z,28.40
2019-03-29T12:19:12.354Z,28.10
2019-03-29T12:21:42.095Z,28.20
2019-03-29T12:24:12.675Z,28.60
2019-03-29T12:26:43.650Z,29.00
2019-03-29T12:29:14.180Z,28.90
2019-03-29T12:31:44.113Z,29.10
2019-03-29T12:34:14.197Z,29.10
2019-03-29T12:36:46.005Z,28.50
2019-03-29T12:39:15.871Z,28.60
2019-03-29T12:41:45.643Z,28.30
2019-03-29T12:44:16.301Z,28.30
2019-03-29T12:46:46.316Z,28.60
2019-03-29T12:49:16.069Z,28.70
2019-03-29T12:51:46.885Z,28.80
2019-03-29T12:54:17.170Z,29.40
2019-03-29T12:56:47.422Z,29.30
2019-03-29T12:59:17.608Z,29.50
2019-03-29T13:01:47.770Z,29.50
2019-03-29T13:04:17.636Z,29.50
2019-03-29T13:06:47.499Z,29.90
2019-03-29T13:09:17.303Z,29.90
2019-03-29T13:11:47.039Z,30.00
2019-03-29T13:14:16.800Z,29.90
2019-03-29T13:16:46.947Z,29.80
2019-03-29T13:19:16.752Z,29.80
2019-03-29T13:21:46.623Z,30.10
2019-03-29T13:24:16.501Z,29.90
2019-03-29T13:26:46.680Z,29.80
2019-03-29T13:29:17.532Z,30.00
2019-03-29T13:31:47.325Z,30.20
2019-03-29T13:34:17.578Z,30.20
2019-03-29T13:36:47.366Z,29.70
2019-03-29T13:39:17.243Z,29.90
2019-03-29T13:41:47.331Z,30.20
2019-03-29T13:44:23.681Z,30.20
2019-03-29T13:46:49.386Z,30.30
2019-03-29T13:49:19.577Z,29.80
2019-03-29T13:51:49.367Z,30.20
2019-03-29T13:54:19.697Z,30.10
2019-03-29T13:56:50.351Z,30.20
2019-03-29T13:59:20.094Z,30.50
2019-03-29T14:01:49.908Z,29.90
2019-03-29T14:04:19.987Z,30.10
2019-03-29T14:06:49.776Z,30.10
2019-03-29T14:09:19.880Z,30.30
2019-03-29T14:11:49.958Z,30.70
2019-03-29T14:14:20.744Z,30.20
2019-03-29T14:16:50.620Z,29.90
2019-03-29T14:19:20.768Z,29.40
2019-03-29T14:21:51.006Z,29.60
2019-03-29T14:24:21.598Z,29.20
2019-03-29T14:26:51.466Z,28.90
2019-03-29T14:29:21.212Z,28.60
2019-03-29T14:31:54.014Z,28.20
2019-03-29T14:34:22.941Z,28.10
2019-03-29T14:36:53.108Z,27.80
2019-03-29T14:39:22.914Z,27.70
2019-03-29T14:41:52.724Z,28.00
2019-03-29T14:44:22.506Z,27.90
2019-03-29T14:46:52.239Z,27.60
2019-03-29T14:49:22.866Z,27.50
2019-03-29T14:51:52.590Z,27.60
2019-03-29T14:54:22.652Z,27.40
2019-03-29T14:56:52.722Z,26.80
2019-03-29T14:59:22.821Z,26.20
2019-03-29T15:01:52.856Z,25.70
2019-03-29T15:04:23.380Z,25.80
2019-03-29T15:06:53.929Z,25.90
2019-03-29T15:09:24.142Z,25.90
2019-03-29T15:11:54.194Z,25.80
2019-03-29T15:14:24.615Z,26.00
2019-03-29T15:16:54.634Z,25.70
2019-03-29T15:19:25.435Z,25.30
2019-03-29T15:21:56.083Z,24.80
2019-03-29T15:24:26.114Z,24.80
2019-03-29T15:26:56.644Z,24.60
2019-03-29T15:29:26.867Z,24.40
2019-03-29T15:31:57.046Z,24.10
2019-03-29T15:34:27.206Z,23.70
2019-03-29T15:36:57.031Z,23.50
2019-03-29T15:39:27.606Z,23.40
2019-03-29T15:41:58.214Z,23.30
2019-03-29T15:44:28.737Z,23.20
2019-03-29T15:46:58.975Z,23.40
2019-03-29T15:49:28.870Z,23.20
2019-03-29T15:51:59.069Z,23.00
2019-03-29T15:54:29.680Z,22.70
2019-03-29T15:57:01.812Z,22.60
2019-03-29T15:59:31.980Z,22.70
2019-03-29T16:02:02.377Z,22.60
2019-03-29T16:04:32.179Z,22.30
2019-03-29T16:07:02.866Z,22.10
2019-03-29T16:09:32.667Z,22.10
2019-03-29T16:12:02.793Z,22.00
2019-03-29T16:14:32.524Z,22.00
2019-03-29T16:17:02.599Z,21.90
2019-03-29T16:19:32.735Z,21.60
2019-03-29T16:22:05.885Z,21.50
2019-03-29T16:24:34.483Z,21.30
2019-03-29T16:27:04.378Z,21.30
2019-03-29T16:29:35.181Z,21.10
2019-03-29T16:32:05.666Z,21.10
2019-03-29T16:34:35.914Z,21.20
2019-03-29T16:37:06.162Z,20.90
2019-03-29T16:39:36.453Z,20.80
2019-03-29T16:42:06.300Z,20.70
2019-03-29T16:44:36.118Z,20.50
2019-03-29T16:47:06.708Z,20.40
2019-03-29T16:49:36.528Z,20.20
2019-03-29T16:52:06.268Z,20.20
2019-03-29T16:54:36.070Z,20.00
2019-03-29T16:57:06.214Z,19.90
2019-03-29T16:59:35.984Z,19.80
2019-03-29T17:02:06.574Z,19.70
2019-03-29T17:04:36.450Z,19.50
2019-03-29T17:07:06.550Z,19.50
2019-03-29T17:09:36.327Z,19.30
2019-03-29T17:12:06.276Z,19.20
2019-03-29T17:14:36.394Z,19.10
2019-03-29T17:17:06.207Z,18.90
2019-03-29T17:19:35.934Z,18.90
2019-03-29T17:22:06.159Z,18.80
2019-03-29T17:24:36.322Z,18.80
2019-03-29T17:27:06.194Z,18.70
2019-03-29T17:29:35.994Z,18.60
2019-03-29T17:32:06.214Z,18.50
2019-03-29T17:34:48.183Z,18.30
2019-03-29T17:37:18.553Z,18.20
2019-03-29T17:39:48.729Z,18.10
2019-03-29T17:42:18.502Z,18.00
2019-03-29T17:44:48.638Z,18.00
2019-03-29T17:47:18.367Z,17.80
2019-03-29T17:49:48.112Z,17.70
2019-03-29T17:52:18.777Z,17.60
2019-03-29T17:54:48.610Z,17.50
2019-03-29T17:57:18.328Z,17.40
2019-03-29T17:59:48.479Z,17.30
2019-03-29T18:02:18.949Z,17.10
2019-03-29T18:04:49.068Z,17.00
2019-03-29T18:07:19.249Z,16.80
2019-03-29T18:09:48.959Z,16.70
2019-03-29T18:12:19.217Z,16.60
2019-03-29T18:14:49.345Z,16.50
2019-03-29T18:17:19.144Z,16.40
2019-03-29T18:19:49.944Z,16.30
2019-03-29T18:22:20.072Z,16.20
2019-03-29T18:24:49.808Z,16.10
2019-03-29T18:27:19.542Z,16.00
2019-03-29T18:29:49.272Z,15.90
2019-03-29T18:32:20.530Z,15.80
2019-03-29T18:34:50.736Z,15.70
2019-03-29T18:37:21.138Z,15.60
2019-03-29T18:39:50.865Z,15.60
2019-03-29T18:42:21.035Z,15.50
2019-03-29T18:44:52.130Z,15.40
2019-03-29T18:47:21.964Z,15.40
2019-03-29T18:50:02.016Z,15.40
2019-03-29T18:52:33.277Z,15.30
2019-03-29T18:55:03.792Z,15.20
2019-03-29T18:57:33.595Z,15.10
2019-03-29T19:00:04.097Z,15.00
2019-03-29T19:02:34.270Z,15.00
2019-03-29T19:05:04.663Z,15.00
2019-03-29T19:07:34.813Z,14.90
2019-03-29T19:10:05.254Z,14.80
2019-03-29T19:12:36.961Z,14.70
2019-03-29T19:15:07.724Z,14.60
2019-03-29T19:17:37.891Z,14.60
2019-03-29T19:20:10.388Z,14.50
2019-03-29T19:22:40.191Z,14.50
2019-03-29T19:25:10.932Z,14.40
2019-03-29T19:27:41.943Z,14.30
2019-03-29T19:30:12.475Z,14.20
2019-03-29T19:32:44.082Z,14.20
2019-03-29T19:35:14.280Z,14.10
2019-03-29T19:37:44.132Z,14.00
2019-03-29T19:40:15.606Z,14.00
2019-03-29T19:42:45.702Z,14.00
2019-03-29T19:45:16.109Z,13.90
2019-03-29T19:47:46.310Z,13.80
2019-03-29T19:50:16.358Z,13.80
2019-03-29T19:52:46.170Z,13.70
2019-03-29T19:55:16.014Z,13.70
2019-03-29T19:57:47.888Z,13.70
2019-03-29T20:00:18.478Z,13.70
2019-03-29T20:02:48.310Z,13.70
2019-03-29T20:05:28.907Z,13.70
2019-03-29T20:07:58.706Z,13.70
2019-03-29T20:10:28.558Z,13.70
2019-03-29T20:12:58.930Z,13.60
2019-03-29T20:15:30.817Z,13.60
2019-03-29T20:18:01.486Z,13.60
2019-03-29T20:20:31.621Z,13.60
2019-03-29T20:23:01.849Z,13.60
2019-03-29T20:25:31.650Z,13.50
2019-03-29T20:28:01.501Z,13.50
2019-03-29T20:30:31.363Z,13.50
2019-03-29T20:33:01.584Z,13.50
2019-03-29T20:35:34.148Z,13.40
2019-03-29T20:38:04.067Z,13.40
2019-03-29T20:40:33.912Z,13.40
2019-03-29T20:43:03.852Z,13.40
2019-03-29T20:45:33.930Z,13.40
2019-03-29T20:48:04.083Z,13.30
2019-03-29T20:50:33.831Z,13.30
2019-03-29T20:53:03.963Z,13.20
2019-03-29T20:55:34.150Z,13.20
2019-03-29T20:58:04.703Z,13.20
2019-03-29T21:00:36.217Z,13.10
2019-03-29T21:03:06.913Z,13.10
2019-03-29T21:05:37.455Z,13.10
2019-03-29T21:08:08.740Z,13.10
2019-03-29T21:10:38.976Z,13.00
2019-03-29T21:13:09.145Z,13.00
2019-03-29T21:15:38.987Z,13.00
2019-03-29T21:18:09.040Z,13.00
2019-03-29T21:20:39.103Z,13.00
2019-03-29T21:23:09.289Z,13.00
2019-03-29T21:25:39.204Z,13.00
2019-03-29T21:28:09.493Z,13.00
2019-03-29T21:30:39.326Z,13.00
2019-03-29T21:33:09.109Z,13.00
2019-03-29T21:35:39.358Z,13.00
2019-03-29T21:38:09.366Z,13.00
2019-03-29T21:40:40.519Z,13.00
2019-03-29T21:43:10.795Z,13.00
2019-03-29T21:45:41.058Z,13.00
2019-03-29T21:48:27.937Z,13.00
2019-03-29T21:50:42.758Z,13.00
2019-03-29T21:53:12.653Z,13.00
2019-03-29T21:55:42.778Z,13.00
2019-03-29T21:58:13.095Z,13.00
2019-03-29T22:00:42.797Z,12.90
2019-03-29T22:03:12.545Z,13.00
2019-03-29T22:05:42.349Z,12.90
2019-03-29T22:08:12.867Z,12.90
2019-03-29T22:10:42.675Z,12.80
2019-03-29T22:13:13.089Z,12.90
2019-03-29T22:15:42.827Z,12.90
2019-03-29T22:18:12.901Z,12.80
2019-03-29T22:20:42.686Z,12.80
2019-03-29T22:23:13.343Z,12.70
2019-03-29T22:25:43.440Z,12.70
2019-03-29T22:28:13.564Z,12.70
2019-03-29T22:30:44.147Z,12.70
2019-03-29T22:33:14.388Z,12.60
2019-03-29T22:35:44.878Z,12.60
2019-03-29T22:38:14.768Z,12.60
2019-03-29T22:40:44.520Z,12.60
2019-03-29T22:43:14.307Z,12.60
2019-03-29T22:45:44.411Z,12.50
2019-03-29T22:48:14.123Z,12.40
2019-03-29T22:50:44.229Z,12.40
2019-03-29T22:53:14.008Z,12.30
2019-03-29T22:55:43.732Z,12.30
2019-03-29T22:58:13.441Z,12.30
2019-03-29T23:00:47.415Z,12.20
2019-03-29T23:03:17.690Z,12.10
2019-03-29T23:05:47.843Z,12.10
2019-03-29T23:08:18.019Z,12.10
2019-03-29T23:10:47.738Z,12.00
2019-03-29T23:13:17.453Z,12.00
2019-03-29T23:15:47.569Z,11.90
2019-03-29T23:18:18.019Z,11.90
2019-03-29T23:20:47.895Z,11.90
2019-03-29T23:23:17.750Z,11.90
2019-03-29T23:25:47.993Z,11.90
2019-03-29T23:28:17.768Z,11.90
2019-03-29T23:30:47.880Z,11.90
2019-03-29T23:33:17.591Z,12.00
2019-03-29T23:35:47.607Z,12.00
2019-03-29T23:38:17.750Z,11.90
2019-03-29T23:40:47.461Z,11.90
2019-03-29T23:43:17.719Z,11.90
2019-03-29T23:45:47.440Z,11.90
2019-03-29T23:48:17.529Z,12.00
2019-03-29T23:50:47.259Z,11.90
2019-03-29T23:53:17.446Z,11.90
2019-03-29T23:55:47.693Z,11.80
2019-03-29T23:58:17.724Z,11.80
